sensor_id;sensor_type;location;lat;lon;timestamp;temperature;humidity
6206;DHT22;3136;48.788;9.772;2023-05-18T00:00:19;3.50;99.90
6206;DHT22;3136;48.788;9.772;2023-05-18T00:02:45;3.50;99.90
6206;DHT22;3136;48.788;9.772;2023-05-18T00:05:12;3.50;99.90
6206;DHT22;3136;48.788;9.772;2023-05-18T00:07:38;3.50;1.00
6206;DHT22;3136;48.788;9.772;2023-05-18T00:10:05;3.50;1.00
6206;DHT22;3136;48.788;9.772;2023-05-18T00:12:31;3.50;1.00
6206;DHT22;3136;48.788;9.772;2023-05-18T00:14:57;3.40;1.00
6206;DHT22;3136;48.788;9.772;2023-05-18T00:17:23;3.30;1.00
6206;DHT22;3136;48.788;9.772;2023-05-18T00:19:48;3.40;1.00
6206;DHT22;3136;48.788;9.772;2023-05-18T00:22:14;3.30;1.00
6206;DHT22;3136;48.788;9.772;2023-05-18T00:24:47;3.30;1.00
6206;DHT22;3136;48.788;9.772;2023-05-18T00:27:13;3.20;1.00
6206;DHT22;3136;48.788;9.772;2023-05-18T00:29:39;3.20;1.00
6206;DHT22;3136;48.788;9.772;2023-05-18T00:32:05;3.20;1.00
6206;DHT22;3136;48.788;9.772;2023-05-18T00:34:30;3.20;1.00
6206;DHT22;3136;48.788;9.772;2023-05-18T00:36:56;3.30;70.00
6206;DHT22;3136;48.788;9.772;2023-05-18T00:39:21;3.30;65.10
6206;DHT22;3136;48.788;9.772;2023-05-18T00:41:47;3.20;1.00
6206;DHT22;3136;48.788;9.772;2023-05-18T00:44:13;3.20;1.00
6206;DHT22;3136;48.788;9.772;2023-05-18T00:46:38;3.20;1.00
6206;DHT22;3136;48.788;9.772;2023-05-18T00:49:04;3.20;99.90
6206;DHT22;3136;48.788;9.772;2023-05-18T00:51:32;3.10;56.30
6206;DHT22;3136;48.788;9.772;2023-05-18T00:53:59;3.20;99.90
6206;DHT22;3136;48.788;9.772;2023-05-18T00:56:26;3.20;99.90
6206;DHT22;3136;48.788;9.772;2023-05-18T00:58:53;3.10;81.50
6206;DHT22;3136;48.788;9.772;2023-05-18T01:01:28;3.10;47.70
6206;DHT22;3136;48.788;9.772;2023-05-18T01:03:57;3.10;26.10
6206;DHT22;3136;48.788;9.772;2023-05-18T01:06:27;3.00;1.00
6206;DHT22;3136;48.788;9.772;2023-05-18T01:08:54;3.00;88.20
6206;DHT22;3136;48.788;9.772;2023-05-18T01:11:36;3.00;99.90
6206;DHT22;3136;48.788;9.772;2023-05-18T01:14:16;2.90;99.90
6206;DHT22;3136;48.788;9.772;2023-05-18T01:16:59;2.90;1.00
6206;DHT22;3136;48.788;9.772;2023-05-18T01:24:48;2.80;99.90
6206;DHT22;3136;48.788;9.772;2023-05-18T01:27:16;2.80;99.90
6206;DHT22;3136;48.788;9.772;2023-05-18T01:29:44;2.80;99.90
6206;DHT22;3136;48.788;9.772;2023-05-18T01:32:20;2.70;99.90
6206;DHT22;3136;48.788;9.772;2023-05-18T01:34:46;2.70;99.90
6206;DHT22;3136;48.788;9.772;2023-05-18T01:37:12;2.70;99.90
6206;DHT22;3136;48.788;9.772;2023-05-18T01:39:38;2.60;99.90
6206;DHT22;3136;48.788;9.772;2023-05-18T01:42:12;2.60;99.90
6206;DHT22;3136;48.788;9.772;2023-05-18T01:44:44;2.60;99.90
6206;DHT22;3136;48.788;9.772;2023-05-18T01:47:13;2.50;99.90
6206;DHT22;3136;48.788;9.772;2023-05-18T01:52:10;2.50;99.90
6206;DHT22;3136;48.788;9.772;2023-05-18T01:54:40;2.50;99.90
6206;DHT22;3136;48.788;9.772;2023-05-18T01:57:07;2.50;99.90
6206;DHT22;3136;48.788;9.772;2023-05-18T01:59:32;2.50;99.90
6206;DHT22;3136;48.788;9.772;2023-05-18T02:01:59;2.40;99.90
6206;DHT22;3136;48.788;9.772;2023-05-18T02:04:28;2.40;99.90
6206;DHT22;3136;48.788;9.772;2023-05-18T02:06:54;2.40;99.90
6206;DHT22;3136;48.788;9.772;2023-05-18T02:09:20;2.30;99.90
6206;DHT22;3136;48.788;9.772;2023-05-18T02:11:47;2.30;99.90
6206;DHT22;3136;48.788;9.772;2023-05-18T02:14:12;2.30;99.90
6206;DHT22;3136;48.788;9.772;2023-05-18T02:16:38;2.30;99.90
6206;DHT22;3136;48.788;9.772;2023-05-18T02:19:04;2.30;1.00
6206;DHT22;3136;48.788;9.772;2023-05-18T02:21:29;2.30;1.00
6206;DHT22;3136;48.788;9.772;2023-05-18T02:23:55;2.30;1.00
6206;DHT22;3136;48.788;9.772;2023-05-18T02:26:21;2.30;1.00
6206;DHT22;3136;48.788;9.772;2023-05-18T02:28:46;2.20;1.00
6206;DHT22;3136;48.788;9.772;2023-05-18T02:31:12;2.20;1.00
6206;DHT22;3136;48.788;9.772;2023-05-18T02:33:38;2.20;1.00
6206;DHT22;3136;48.788;9.772;2023-05-18T02:36:09;2.20;1.00
6206;DHT22;3136;48.788;9.772;2023-05-18T02:38:37;2.20;1.00
6206;DHT22;3136;48.788;9.772;2023-05-18T02:41:03;2.10;1.00
6206;DHT22;3136;48.788;9.772;2023-05-18T02:43:28;2.10;1.00
6206;DHT22;3136;48.788;9.772;2023-05-18T02:45:54;2.10;1.00
6206;DHT22;3136;48.788;9.772;2023-05-18T02:48:20;2.00;1.00
6206;DHT22;3136;48.788;9.772;2023-05-18T02:50:47;2.00;1.00
6206;DHT22;3136;48.788;9.772;2023-05-18T02:53:13;2.10;1.00
6206;DHT22;3136;48.788;9.772;2023-05-18T02:55:39;2.00;1.00
6206;DHT22;3136;48.788;9.772;2023-05-18T02:58:06;2.00;1.00
6206;DHT22;3136;48.788;9.772;2023-05-18T03:00:31;2.00;1.00
6206;DHT22;3136;48.788;9.772;2023-05-18T03:02:57;1.90;1.00
6206;DHT22;3136;48.788;9.772;2023-05-18T03:05:25;2.00;1.00
6206;DHT22;3136;48.788;9.772;2023-05-18T03:07:51;2.00;1.00
6206;DHT22;3136;48.788;9.772;2023-05-18T03:10:20;2.00;1.00
6206;DHT22;3136;48.788;9.772;2023-05-18T03:12:46;1.90;1.00
6206;DHT22;3136;48.788;9.772;2023-05-18T03:15:13;2.00;1.00
6206;DHT22;3136;48.788;9.772;2023-05-18T03:17:43;2.30;1.00
6206;DHT22;3136;48.788;9.772;2023-05-18T03:20:09;1.90;1.00
6206;DHT22;3136;48.788;9.772;2023-05-18T03:22:36;1.90;1.00
6206;DHT22;3136;48.788;9.772;2023-05-18T03:25:05;1.90;1.00
6206;DHT22;3136;48.788;9.772;2023-05-18T03:27:31;1.90;1.00
6206;DHT22;3136;48.788;9.772;2023-05-18T03:29:58;1.90;1.00
6206;DHT22;3136;48.788;9.772;2023-05-18T03:32:23;1.90;1.00
6206;DHT22;3136;48.788;9.772;2023-05-18T03:34:52;1.90;1.00
6206;DHT22;3136;48.788;9.772;2023-05-18T03:37:18;1.80;1.00
6206;DHT22;3136;48.788;9.772;2023-05-18T03:39:44;1.80;1.00
6206;DHT22;3136;48.788;9.772;2023-05-18T03:42:09;1.80;1.00
6206;DHT22;3136;48.788;9.772;2023-05-18T03:44:35;1.90;1.00
6206;DHT22;3136;48.788;9.772;2023-05-18T03:47:01;1.90;1.00
6206;DHT22;3136;48.788;9.772;2023-05-18T03:49:26;1.90;1.00
6206;DHT22;3136;48.788;9.772;2023-05-18T03:51:54;1.90;1.00
6206;DHT22;3136;48.788;9.772;2023-05-18T03:54:20;1.90;1.00
6206;DHT22;3136;48.788;9.772;2023-05-18T03:56:46;1.90;1.00
6206;DHT22;3136;48.788;9.772;2023-05-18T03:59:13;1.90;1.00
6206;DHT22;3136;48.788;9.772;2023-05-18T04:01:39;1.90;1.00
6206;DHT22;3136;48.788;9.772;2023-05-18T04:04:07;2.00;1.00
6206;DHT22;3136;48.788;9.772;2023-05-18T04:06:33;2.00;1.00
6206;DHT22;3136;48.788;9.772;2023-05-18T04:09:00;1.90;1.00
6206;DHT22;3136;48.788;9.772;2023-05-18T04:11:29;1.90;1.00
6206;DHT22;3136;48.788;9.772;2023-05-18T04:13:55;2.00;1.00
6206;DHT22;3136;48.788;9.772;2023-05-18T04:16:22;2.00;1.00
6206;DHT22;3136;48.788;9.772;2023-05-18T04:18:48;2.00;1.00
6206;DHT22;3136;48.788;9.772;2023-05-18T04:21:13;2.00;1.00
6206;DHT22;3136;48.788;9.772;2023-05-18T04:23:40;2.00;1.00
6206;DHT22;3136;48.788;9.772;2023-05-18T04:26:06;2.10;1.00
6206;DHT22;3136;48.788;9.772;2023-05-18T04:28:33;2.10;1.00
6206;DHT22;3136;48.788;9.772;2023-05-18T04:30:59;2.20;1.00
6206;DHT22;3136;48.788;9.772;2023-05-18T04:33:27;2.20;1.00
6206;DHT22;3136;48.788;9.772;2023-05-18T04:35:52;2.30;1.00
6206;DHT22;3136;48.788;9.772;2023-05-18T04:38:23;2.30;1.00
6206;DHT22;3136;48.788;9.772;2023-05-18T04:40:49;2.40;1.00
6206;DHT22;3136;48.788;9.772;2023-05-18T04:43:19;2.40;7.20
6206;DHT22;3136;48.788;9.772;2023-05-18T04:45:45;2.50;32.10
6206;DHT22;3136;48.788;9.772;2023-05-18T04:48:11;2.60;47.20
6206;DHT22;3136;48.788;9.772;2023-05-18T04:50:38;2.70;55.50
6206;DHT22;3136;48.788;9.772;2023-05-18T04:53:04;2.80;72.30
6206;DHT22;3136;48.788;9.772;2023-05-18T04:55:32;2.90;97.10
6206;DHT22;3136;48.788;9.772;2023-05-18T04:57:58;3.00;99.90
6206;DHT22;3136;48.788;9.772;2023-05-18T05:00:25;3.10;99.90
6206;DHT22;3136;48.788;9.772;2023-05-18T05:02:52;3.20;99.90
6206;DHT22;3136;48.788;9.772;2023-05-18T05:05:18;3.30;99.90
6206;DHT22;3136;48.788;9.772;2023-05-18T05:07:44;3.40;99.90
6206;DHT22;3136;48.788;9.772;2023-05-18T05:10:10;3.50;99.90
6206;DHT22;3136;48.788;9.772;2023-05-18T05:12:36;3.70;99.90
6206;DHT22;3136;48.788;9.772;2023-05-18T05:15:02;3.80;99.90
6206;DHT22;3136;48.788;9.772;2023-05-18T05:17:28;3.90;99.90
6206;DHT22;3136;48.788;9.772;2023-05-18T05:19:54;4.10;99.90
6206;DHT22;3136;48.788;9.772;2023-05-18T05:22:19;4.20;99.90
6206;DHT22;3136;48.788;9.772;2023-05-18T05:24:45;4.30;99.90
6206;DHT22;3136;48.788;9.772;2023-05-18T05:27:10;4.50;99.90
6206;DHT22;3136;48.788;9.772;2023-05-18T05:29:36;4.60;78.50
6206;DHT22;3136;48.788;9.772;2023-05-18T05:32:01;4.70;12.20
6206;DHT22;3136;48.788;9.772;2023-05-18T05:34:27;4.90;1.00
6206;DHT22;3136;48.788;9.772;2023-05-18T05:36:53;5.00;1.00
6206;DHT22;3136;48.788;9.772;2023-05-18T05:39:18;5.20;1.00
6206;DHT22;3136;48.788;9.772;2023-05-18T05:41:44;5.30;1.00
6206;DHT22;3136;48.788;9.772;2023-05-18T05:44:09;5.40;99.90
6206;DHT22;3136;48.788;9.772;2023-05-18T05:46:35;5.50;1.00
6206;DHT22;3136;48.788;9.772;2023-05-18T05:49:00;5.70;99.90
6206;DHT22;3136;48.788;9.772;2023-05-18T05:51:26;5.80;99.90
6206;DHT22;3136;48.788;9.772;2023-05-18T05:53:52;5.90;1.00
6206;DHT22;3136;48.788;9.772;2023-05-18T05:56:17;6.10;99.90
6206;DHT22;3136;48.788;9.772;2023-05-18T05:58:43;6.20;22.60
6206;DHT22;3136;48.788;9.772;2023-05-18T06:01:08;6.30;1.00
6206;DHT22;3136;48.788;9.772;2023-05-18T06:03:34;6.50;1.00
6206;DHT22;3136;48.788;9.772;2023-05-18T06:06:00;6.60;47.40
6206;DHT22;3136;48.788;9.772;2023-05-18T06:08:25;6.70;7.40
6206;DHT22;3136;48.788;9.772;2023-05-18T06:10:51;6.80;1.00
6206;DHT22;3136;48.788;9.772;2023-05-18T06:13:17;7.00;1.00
6206;DHT22;3136;48.788;9.772;2023-05-18T06:15:42;7.20;1.00
6206;DHT22;3136;48.788;9.772;2023-05-18T06:18:08;7.30;1.00
6206;DHT22;3136;48.788;9.772;2023-05-18T06:20:33;7.40;99.90
6206;DHT22;3136;48.788;9.772;2023-05-18T06:22:59;7.50;99.90
6206;DHT22;3136;48.788;9.772;2023-05-18T06:25:25;7.60;1.00
6206;DHT22;3136;48.788;9.772;2023-05-18T06:27:51;7.70;1.00
6206;DHT22;3136;48.788;9.772;2023-05-18T06:30:16;7.80;1.00
6206;DHT22;3136;48.788;9.772;2023-05-18T06:32:42;7.90;99.90
6206;DHT22;3136;48.788;9.772;2023-05-18T06:35:08;8.00;98.30
6206;DHT22;3136;48.788;9.772;2023-05-18T06:37:33;8.10;1.00
6206;DHT22;3136;48.788;9.772;2023-05-18T06:39:59;8.20;1.00
6206;DHT22;3136;48.788;9.772;2023-05-18T06:42:25;8.30;1.00
6206;DHT22;3136;48.788;9.772;2023-05-18T06:44:50;8.40;1.00
6206;DHT22;3136;48.788;9.772;2023-05-18T06:47:16;8.50;1.00
6206;DHT22;3136;48.788;9.772;2023-05-18T06:49:42;8.60;1.00
6206;DHT22;3136;48.788;9.772;2023-05-18T06:52:08;8.60;1.00
6206;DHT22;3136;48.788;9.772;2023-05-18T06:54:35;8.70;1.00
6206;DHT22;3136;48.788;9.772;2023-05-18T06:57:01;8.80;1.00
6206;DHT22;3136;48.788;9.772;2023-05-18T06:59:27;8.90;1.00
6206;DHT22;3136;48.788;9.772;2023-05-18T07:01:55;9.00;1.00
6206;DHT22;3136;48.788;9.772;2023-05-18T07:04:21;9.10;1.00
6206;DHT22;3136;48.788;9.772;2023-05-18T07:06:47;9.20;1.00
6206;DHT22;3136;48.788;9.772;2023-05-18T07:09:13;9.30;99.90
6206;DHT22;3136;48.788;9.772;2023-05-18T07:11:38;9.40;99.90
6206;DHT22;3136;48.788;9.772;2023-05-18T07:14:07;9.90;99.90
6206;DHT22;3136;48.788;9.772;2023-05-18T07:16:32;9.60;99.90
6206;DHT22;3136;48.788;9.772;2023-05-18T07:18:58;9.80;99.90
6206;DHT22;3136;48.788;9.772;2023-05-18T07:21:24;9.90;99.90
6206;DHT22;3136;48.788;9.772;2023-05-18T07:23:50;9.90;99.90
6206;DHT22;3136;48.788;9.772;2023-05-18T07:26:17;10.10;99.90
6206;DHT22;3136;48.788;9.772;2023-05-18T07:28:43;10.20;99.90
6206;DHT22;3136;48.788;9.772;2023-05-18T07:31:08;10.40;99.90
6206;DHT22;3136;48.788;9.772;2023-05-18T07:33:34;10.50;99.90
6206;DHT22;3136;48.788;9.772;2023-05-18T07:36:00;10.60;99.90
6206;DHT22;3136;48.788;9.772;2023-05-18T07:38:26;10.70;99.90
6206;DHT22;3136;48.788;9.772;2023-05-18T07:40:51;10.80;99.90
6206;DHT22;3136;48.788;9.772;2023-05-18T07:43:17;11.00;99.90
6206;DHT22;3136;48.788;9.772;2023-05-18T07:45:42;11.10;99.90
6206;DHT22;3136;48.788;9.772;2023-05-18T07:48:08;11.20;99.90
6206;DHT22;3136;48.788;9.772;2023-05-18T07:50:34;11.30;99.90
6206;DHT22;3136;48.788;9.772;2023-05-18T07:52:59;11.50;99.90
6206;DHT22;3136;48.788;9.772;2023-05-18T07:55:25;11.50;99.90
6206;DHT22;3136;48.788;9.772;2023-05-18T07:57:51;11.60;99.90
6206;DHT22;3136;48.788;9.772;2023-05-18T08:00:17;11.70;99.90
6206;DHT22;3136;48.788;9.772;2023-05-18T08:02:43;11.80;99.90
6206;DHT22;3136;48.788;9.772;2023-05-18T08:05:10;11.80;99.90
6206;DHT22;3136;48.788;9.772;2023-05-18T08:07:36;11.90;99.90
6206;DHT22;3136;48.788;9.772;2023-05-18T08:10:01;12.00;99.90
6206;DHT22;3136;48.788;9.772;2023-05-18T08:12:27;12.00;99.90
6206;DHT22;3136;48.788;9.772;2023-05-18T08:14:54;12.10;99.90
6206;DHT22;3136;48.788;9.772;2023-05-18T08:17:20;12.20;99.90
6206;DHT22;3136;48.788;9.772;2023-05-18T08:19:46;12.30;99.90
6206;DHT22;3136;48.788;9.772;2023-05-18T08:22:13;12.40;99.90
6206;DHT22;3136;48.788;9.772;2023-05-18T08:24:38;12.50;99.90
6206;DHT22;3136;48.788;9.772;2023-05-18T08:27:04;12.80;99.90
6206;DHT22;3136;48.788;9.772;2023-05-18T08:29:32;12.80;99.90
6206;DHT22;3136;48.788;9.772;2023-05-18T08:31:58;12.90;99.90
6206;DHT22;3136;48.788;9.772;2023-05-18T08:34:23;13.10;99.90
6206;DHT22;3136;48.788;9.772;2023-05-18T08:36:49;13.10;99.90
6206;DHT22;3136;48.788;9.772;2023-05-18T08:39:15;13.20;99.90
6206;DHT22;3136;48.788;9.772;2023-05-18T08:42:02;13.20;99.90
6206;DHT22;3136;48.788;9.772;2023-05-18T08:44:39;13.30;99.90
6206;DHT22;3136;48.788;9.772;2023-05-18T08:47:08;13.50;99.90
6206;DHT22;3136;48.788;9.772;2023-05-18T08:49:34;13.60;99.90
6206;DHT22;3136;48.788;9.772;2023-05-18T08:52:03;13.70;99.90
6206;DHT22;3136;48.788;9.772;2023-05-18T08:54:30;13.80;99.90
6206;DHT22;3136;48.788;9.772;2023-05-18T08:56:56;14.00;99.90
6206;DHT22;3136;48.788;9.772;2023-05-18T08:59:25;14.30;99.90
6206;DHT22;3136;48.788;9.772;2023-05-18T09:01:51;14.50;99.90
6206;DHT22;3136;48.788;9.772;2023-05-18T09:04:18;14.70;99.90
6206;DHT22;3136;48.788;9.772;2023-05-18T09:06:46;14.80;99.90
6206;DHT22;3136;48.788;9.772;2023-05-18T09:09:13;14.80;99.90
6206;DHT22;3136;48.788;9.772;2023-05-18T09:11:40;14.80;99.90
6206;DHT22;3136;48.788;9.772;2023-05-18T09:14:06;14.80;99.90
6206;DHT22;3136;48.788;9.772;2023-05-18T09:16:32;15.00;99.90
6206;DHT22;3136;48.788;9.772;2023-05-18T09:18:58;15.00;99.90
6206;DHT22;3136;48.788;9.772;2023-05-18T09:21:24;15.00;99.90
6206;DHT22;3136;48.788;9.772;2023-05-18T09:23:50;15.00;99.90
6206;DHT22;3136;48.788;9.772;2023-05-18T09:26:18;15.10;99.90
6206;DHT22;3136;48.788;9.772;2023-05-18T09:28:44;15.10;99.90
6206;DHT22;3136;48.788;9.772;2023-05-18T09:31:16;15.10;99.90
6206;DHT22;3136;48.788;9.772;2023-05-18T09:33:43;15.20;99.90
6206;DHT22;3136;48.788;9.772;2023-05-18T09:36:09;15.20;99.90
6206;DHT22;3136;48.788;9.772;2023-05-18T09:38:40;15.30;99.90
6206;DHT22;3136;48.788;9.772;2023-05-18T09:41:12;15.30;99.90
6206;DHT22;3136;48.788;9.772;2023-05-18T09:43:39;15.20;99.90
6206;DHT22;3136;48.788;9.772;2023-05-18T09:46:06;15.30;99.90
6206;DHT22;3136;48.788;9.772;2023-05-18T09:48:36;15.40;99.90
6206;DHT22;3136;48.788;9.772;2023-05-18T09:51:05;17.70;99.90
6206;DHT22;3136;48.788;9.772;2023-05-18T09:53:34;15.70;99.90
6206;DHT22;3136;48.788;9.772;2023-05-18T09:56:05;15.90;99.90
6206;DHT22;3136;48.788;9.772;2023-05-18T09:58:33;15.70;99.90
6206;DHT22;3136;48.788;9.772;2023-05-18T10:01:02;15.70;99.90
6206;DHT22;3136;48.788;9.772;2023-05-18T10:03:33;15.80;99.90
6206;DHT22;3136;48.788;9.772;2023-05-18T10:06:05;15.90;99.90
6206;DHT22;3136;48.788;9.772;2023-05-18T10:08:32;16.00;99.90
6206;DHT22;3136;48.788;9.772;2023-05-18T10:10:58;16.70;99.90
6206;DHT22;3136;48.788;9.772;2023-05-18T10:13:28;16.30;99.90
6206;DHT22;3136;48.788;9.772;2023-05-18T10:15:57;16.40;99.90
6206;DHT22;3136;48.788;9.772;2023-05-18T10:18:28;16.50;99.90
6206;DHT22;3136;48.788;9.772;2023-05-18T10:20:59;17.00;99.90
6206;DHT22;3136;48.788;9.772;2023-05-18T10:23:26;16.90;99.90
6206;DHT22;3136;48.788;9.772;2023-05-18T10:25:52;16.90;99.90
6206;DHT22;3136;48.788;9.772;2023-05-18T10:28:25;17.20;99.90
6206;DHT22;3136;48.788;9.772;2023-05-18T10:30:53;17.40;99.90
6206;DHT22;3136;48.788;9.772;2023-05-18T10:33:30;17.40;99.90
6206;DHT22;3136;48.788;9.772;2023-05-18T10:35:56;17.80;99.90
6206;DHT22;3136;48.788;9.772;2023-05-18T10:38:27;18.20;99.90
6206;DHT22;3136;48.788;9.772;2023-05-18T10:40:56;19.80;99.90
6206;DHT22;3136;48.788;9.772;2023-05-18T10:43:23;19.50;99.90
6206;DHT22;3136;48.788;9.772;2023-05-18T10:45:57;20.10;99.90
6206;DHT22;3136;48.788;9.772;2023-05-18T10:48:24;21.10;99.90
6206;DHT22;3136;48.788;9.772;2023-05-18T10:50:51;21.10;99.90
6206;DHT22;3136;48.788;9.772;2023-05-18T10:53:22;20.90;99.90
6206;DHT22;3136;48.788;9.772;2023-05-18T10:55:49;20.40;99.90
6206;DHT22;3136;48.788;9.772;2023-05-18T10:58:17;20.40;99.90
6206;DHT22;3136;48.788;9.772;2023-05-18T11:00:54;20.30;99.90
6206;DHT22;3136;48.788;9.772;2023-05-18T11:03:20;20.00;99.90
6206;DHT22;3136;48.788;9.772;2023-05-18T11:06:01;20.20;99.90
6206;DHT22;3136;48.788;9.772;2023-05-18T11:08:27;20.50;99.90
6206;DHT22;3136;48.788;9.772;2023-05-18T11:11:04;21.20;99.90
6206;DHT22;3136;48.788;9.772;2023-05-18T11:13:33;20.90;99.90
6206;DHT22;3136;48.788;9.772;2023-05-18T11:16:05;20.90;99.90
6206;DHT22;3136;48.788;9.772;2023-05-18T11:18:39;21.10;99.90
6206;DHT22;3136;48.788;9.772;2023-05-18T11:24:13;21.50;99.90
6206;DHT22;3136;48.788;9.772;2023-05-18T11:26:41;22.10;99.90
6206;DHT22;3136;48.788;9.772;2023-05-18T11:31:44;22.80;99.90
6206;DHT22;3136;48.788;9.772;2023-05-18T11:37:03;23.50;99.20
6206;DHT22;3136;48.788;9.772;2023-05-18T11:39:31;23.50;99.90
6206;DHT22;3136;48.788;9.772;2023-05-18T11:42:05;23.80;98.40
6206;DHT22;3136;48.788;9.772;2023-05-18T11:44:31;23.90;99.00
6206;DHT22;3136;48.788;9.772;2023-05-18T11:52:03;24.30;98.30
6206;DHT22;3136;48.788;9.772;2023-05-18T11:54:48;24.70;97.30
6206;DHT22;3136;48.788;9.772;2023-05-18T11:57:16;25.00;97.30
6206;DHT22;3136;48.788;9.772;2023-05-18T11:59:46;25.40;96.00
6206;DHT22;3136;48.788;9.772;2023-05-18T12:02:19;25.60;96.30
6206;DHT22;3136;48.788;9.772;2023-05-18T12:04:46;25.40;95.40
6206;DHT22;3136;48.788;9.772;2023-05-18T12:07:12;25.30;95.40
6206;DHT22;3136;48.788;9.772;2023-05-18T12:09:42;25.30;95.60
6206;DHT22;3136;48.788;9.772;2023-05-18T12:12:09;24.70;95.30
6206;DHT22;3136;48.788;9.772;2023-05-18T12:14:37;24.10;95.10
6206;DHT22;3136;48.788;9.772;2023-05-18T12:17:04;23.80;94.60
6206;DHT22;3136;48.788;9.772;2023-05-18T12:19:36;23.40;94.80
6206;DHT22;3136;48.788;9.772;2023-05-18T12:22:01;23.00;98.90
6206;DHT22;3136;48.788;9.772;2023-05-18T12:24:29;22.20;94.10
6206;DHT22;3136;48.788;9.772;2023-05-18T12:26:54;22.20;95.10
6206;DHT22;3136;48.788;9.772;2023-05-18T12:29:20;22.20;94.70
6206;DHT22;3136;48.788;9.772;2023-05-18T12:31:47;22.20;95.00
6206;DHT22;3136;48.788;9.772;2023-05-18T12:34:13;22.60;94.60
6206;DHT22;3136;48.788;9.772;2023-05-18T12:36:51;22.60;95.10
6206;DHT22;3136;48.788;9.772;2023-05-18T12:39:17;23.00;94.60
6206;DHT22;3136;48.788;9.772;2023-05-18T12:41:43;23.40;94.00
6206;DHT22;3136;48.788;9.772;2023-05-18T12:44:08;23.80;94.00
6206;DHT22;3136;48.788;9.772;2023-05-18T12:46:34;24.10;93.30
6206;DHT22;3136;48.788;9.772;2023-05-18T12:49:00;24.20;93.30
6206;DHT22;3136;48.788;9.772;2023-05-18T12:51:31;24.40;93.50
6206;DHT22;3136;48.788;9.772;2023-05-18T12:53:57;24.70;92.90
6206;DHT22;3136;48.788;9.772;2023-05-18T12:56:23;24.60;92.60
6206;DHT22;3136;48.788;9.772;2023-05-18T12:58:57;24.60;93.00
6206;DHT22;3136;48.788;9.772;2023-05-18T13:01:24;24.50;91.90
6206;DHT22;3136;48.788;9.772;2023-05-18T13:03:57;24.40;92.40
6206;DHT22;3136;48.788;9.772;2023-05-18T13:06:23;24.30;91.50
6206;DHT22;3136;48.788;9.772;2023-05-18T13:08:52;24.20;91.60
6206;DHT22;3136;48.788;9.772;2023-05-18T13:11:23;24.20;92.10
6206;DHT22;3136;48.788;9.772;2023-05-18T13:14:02;24.50;92.50
6206;DHT22;3136;48.788;9.772;2023-05-18T13:16:29;24.70;92.40
6206;DHT22;3136;48.788;9.772;2023-05-18T13:18:59;24.30;92.10
6206;DHT22;3136;48.788;9.772;2023-05-18T13:21:25;23.20;90.90
6206;DHT22;3136;48.788;9.772;2023-05-18T13:23:51;22.10;90.80
6206;DHT22;3136;48.788;9.772;2023-05-18T13:26:17;21.20;91.50
6206;DHT22;3136;48.788;9.772;2023-05-18T13:28:47;20.80;91.00
6206;DHT22;3136;48.788;9.772;2023-05-18T13:31:14;21.10;91.80
6206;DHT22;3136;48.788;9.772;2023-05-18T13:33:40;21.70;91.80
6206;DHT22;3136;48.788;9.772;2023-05-18T13:36:06;22.10;91.60
6206;DHT22;3136;48.788;9.772;2023-05-18T13:38:32;22.50;92.00
6206;DHT22;3136;48.788;9.772;2023-05-18T13:41:00;23.00;91.60
6206;DHT22;3136;48.788;9.772;2023-05-18T13:43:26;22.90;91.10
6206;DHT22;3136;48.788;9.772;2023-05-18T13:45:52;22.90;90.70
6206;DHT22;3136;48.788;9.772;2023-05-18T13:48:17;23.30;91.60
6206;DHT22;3136;48.788;9.772;2023-05-18T13:50:43;23.40;91.00
6206;DHT22;3136;48.788;9.772;2023-05-18T13:53:08;22.70;90.40
6206;DHT22;3136;48.788;9.772;2023-05-18T13:55:37;21.80;90.90
6206;DHT22;3136;48.788;9.772;2023-05-18T13:58:03;20.90;91.20
6206;DHT22;3136;48.788;9.772;2023-05-18T14:00:28;20.50;91.00
6206;DHT22;3136;48.788;9.772;2023-05-18T14:02:57;19.70;90.70
6206;DHT22;3136;48.788;9.772;2023-05-18T14:05:23;19.30;90.70
6206;DHT22;3136;48.788;9.772;2023-05-18T14:07:49;20.20;92.10
6206;DHT22;3136;48.788;9.772;2023-05-18T14:10:17;18.90;91.10
6206;DHT22;3136;48.788;9.772;2023-05-18T14:12:42;18.60;91.30
6206;DHT22;3136;48.788;9.772;2023-05-18T14:15:11;18.50;92.00
6206;DHT22;3136;48.788;9.772;2023-05-18T14:17:41;18.30;92.70
6206;DHT22;3136;48.788;9.772;2023-05-18T14:20:07;18.20;92.00
6206;DHT22;3136;48.788;9.772;2023-05-18T14:22:33;18.00;91.70
6206;DHT22;3136;48.788;9.772;2023-05-18T14:24:59;18.60;92.10
6206;DHT22;3136;48.788;9.772;2023-05-18T14:27:28;18.10;92.40
6206;DHT22;3136;48.788;9.772;2023-05-18T14:29:53;18.00;93.00
6206;DHT22;3136;48.788;9.772;2023-05-18T14:32:19;18.00;92.60
6206;DHT22;3136;48.788;9.772;2023-05-18T14:34:45;18.00;92.60
6206;DHT22;3136;48.788;9.772;2023-05-18T14:37:11;17.90;92.60
6206;DHT22;3136;48.788;9.772;2023-05-18T14:39:36;17.80;92.70
6206;DHT22;3136;48.788;9.772;2023-05-18T14:42:03;18.00;92.70
6206;DHT22;3136;48.788;9.772;2023-05-18T14:44:29;17.90;92.90
6206;DHT22;3136;48.788;9.772;2023-05-18T14:46:55;17.90;93.50
6206;DHT22;3136;48.788;9.772;2023-05-18T14:49:20;17.80;93.30
6206;DHT22;3136;48.788;9.772;2023-05-18T14:51:46;17.70;92.40
6206;DHT22;3136;48.788;9.772;2023-05-18T14:54:11;17.80;92.70
6206;DHT22;3136;48.788;9.772;2023-05-18T14:56:38;17.70;93.30
6206;DHT22;3136;48.788;9.772;2023-05-18T14:59:04;17.90;93.10
6206;DHT22;3136;48.788;9.772;2023-05-18T15:01:29;17.80;93.60
6206;DHT22;3136;48.788;9.772;2023-05-18T15:03:55;17.70;92.90
6206;DHT22;3136;48.788;9.772;2023-05-18T15:06:21;19.00;94.90
6206;DHT22;3136;48.788;9.772;2023-05-18T15:08:46;17.70;93.10
6206;DHT22;3136;48.788;9.772;2023-05-18T15:11:12;17.50;98.30
6206;DHT22;3136;48.788;9.772;2023-05-18T15:13:37;17.50;93.00
6206;DHT22;3136;48.788;9.772;2023-05-18T15:16:05;17.40;93.40
6206;DHT22;3136;48.788;9.772;2023-05-18T15:18:30;17.40;92.80
6206;DHT22;3136;48.788;9.772;2023-05-18T15:20:56;17.40;93.90
6206;DHT22;3136;48.788;9.772;2023-05-18T15:23:22;17.60;93.70
6206;DHT22;3136;48.788;9.772;2023-05-18T15:25:49;18.00;94.20
6206;DHT22;3136;48.788;9.772;2023-05-18T15:28:15;17.40;93.20
6206;DHT22;3136;48.788;9.772;2023-05-18T15:30:41;17.20;94.10
6206;DHT22;3136;48.788;9.772;2023-05-18T15:33:06;17.20;93.50
6206;DHT22;3136;48.788;9.772;2023-05-18T15:35:32;17.30;94.40
6206;DHT22;3136;48.788;9.772;2023-05-18T15:37:59;17.00;93.70
6206;DHT22;3136;48.788;9.772;2023-05-18T15:40:25;17.00;93.40
6206;DHT22;3136;48.788;9.772;2023-05-18T15:42:50;16.90;93.80
6206;DHT22;3136;48.788;9.772;2023-05-18T15:45:16;16.90;93.90
6206;DHT22;3136;48.788;9.772;2023-05-18T15:47:41;16.90;94.90
6206;DHT22;3136;48.788;9.772;2023-05-18T15:50:07;17.10;94.50
6206;DHT22;3136;48.788;9.772;2023-05-18T15:52:33;16.90;78.30
6206;DHT22;3136;48.788;9.772;2023-05-18T15:54:58;16.90;94.50
6206;DHT22;3136;48.788;9.772;2023-05-18T15:57:24;16.70;93.70
6206;DHT22;3136;48.788;9.772;2023-05-18T15:59:50;16.80;94.30
6206;DHT22;3136;48.788;9.772;2023-05-18T16:02:16;16.70;94.30
6206;DHT22;3136;48.788;9.772;2023-05-18T16:04:41;16.70;94.00
6206;DHT22;3136;48.788;9.772;2023-05-18T16:07:07;16.60;94.30
6206;DHT22;3136;48.788;9.772;2023-05-18T16:09:32;16.50;95.20
6206;DHT22;3136;48.788;9.772;2023-05-18T16:11:58;16.50;94.40
6206;DHT22;3136;48.788;9.772;2023-05-18T16:14:23;16.40;94.40
6206;DHT22;3136;48.788;9.772;2023-05-18T16:16:49;16.60;95.20
6206;DHT22;3136;48.788;9.772;2023-05-18T16:19:15;16.40;94.40
6206;DHT22;3136;48.788;9.772;2023-05-18T16:21:42;16.40;93.90
6206;DHT22;3136;48.788;9.772;2023-05-18T16:24:08;16.50;95.30
6206;DHT22;3136;48.788;9.772;2023-05-18T16:26:33;16.40;95.30
6206;DHT22;3136;48.788;9.772;2023-05-18T16:28:59;16.40;94.60
6206;DHT22;3136;48.788;9.772;2023-05-18T16:31:25;16.40;95.30